Time;durP1;ratioP1;P1;durP2;ratioP2;P2;SDS_P1;SDS_P2;PMS_P1;PMS_P2;Temp;Humidity;BMP_temperature;BMP_pressure;BME280_temperature;BME280_humidity;BME280_pressure;Samples;Min_cycle;Max_cycle;Signal;HPM_P1;HPM_P2
2023/08/21 00:01:22;;;;;;;8.85;2.45;;;;;;;;;;5048796;28;20048;-77
2023/08/21 00:03:48;;;;;;;8.65;2.33;;;;;;;;;;5038998;28;20140;-78
2023/08/21 00:06:14;;;;;;;9.70;2.50;;;;;;;;;;5075955;28;20052;-78
2023/08/21 00:08:40;;;;;;;7.32;2.22;;;;;;;;;;5058502;28;20041;-77
2023/08/21 00:11:06;;;;;;;10.38;2.40;;;;;;;;;;5064838;28;20048;-78
2023/08/21 00:13:32;;;;;;;9.00;2.10;;;;;;;;;;5059045;28;20487;-77
2023/08/21 00:15:58;;;;;;;6.35;2.08;;;;;;;;;;5069242;28;20045;-78
2023/08/21 00:18:24;;;;;;;5.93;2.05;;;;;;;;;;5073599;28;20044;-78
2023/08/21 00:20:52;;;;;;;6.28;2.13;;;;;;;;;;5074784;28;20059;-78
2023/08/21 00:23:18;;;;;;;7.50;2.35;;;;;;;;;;5057392;28;20041;-77
2023/08/21 00:25:47;;;;;;;9.20;2.15;;;;;;;;;;5064193;28;20455;-79
2023/08/21 00:28:14;;;;;;;8.23;2.05;;;;;;;;;;5060750;28;20051;-78
2023/08/21 00:30:40;;;;;;;6.88;2.17;;;;;;;;;;5061135;28;20041;-77
2023/08/21 00:33:06;;;;;;;8.95;2.05;;;;;;;;;;5056783;28;20053;-78
2023/08/21 00:35:32;;;;;;;10.15;2.53;;;;;;;;;;5069307;28;20045;-78
2023/08/21 00:37:58;;;;;;;10.23;2.72;;;;;;;;;;5071104;28;20044;-78
2023/08/21 00:40:24;;;;;;;11.07;2.30;;;;;;;;;;5077604;28;20045;-77
2023/08/21 00:42:50;;;;;;;8.18;2.20;;;;;;;;;;5075084;28;20040;-78
2023/08/21 00:45:16;;;;;;;5.30;1.85;;;;;;;;;;5060724;28;20041;-77
2023/08/21 00:47:43;;;;;;;7.65;2.00;;;;;;;;;;5073077;28;20568;-78
2023/08/21 00:50:11;;;;;;;6.05;1.85;;;;;;;;;;5070064;28;20036;-77
2023/08/21 00:52:38;;;;;;;10.75;2.67;;;;;;;;;;5064916;28;20052;-78
2023/08/21 00:55:04;;;;;;;10.10;2.60;;;;;;;;;;5075241;28;20051;-78
2023/08/21 00:57:30;;;;;;;10.45;3.33;;;;;;;;;;5075667;28;20375;-78
2023/08/21 00:59:56;;;;;;;11.93;3.28;;;;;;;;;;5069871;28;20045;-77
2023/08/21 01:02:22;;;;;;;9.98;2.80;;;;;;;;;;5061673;28;20055;-77
2023/08/21 01:04:48;;;;;;;10.88;2.80;;;;;;;;;;5067365;28;20516;-78
2023/08/21 01:07:15;;;;;;;6.32;1.95;;;;;;;;;;5060572;28;20043;-78
2023/08/21 01:09:46;;;;;;;10.30;2.60;;;;;;;;;;5075439;28;20041;-78
2023/08/21 01:12:28;;;;;;;8.55;2.72;;;;;;;;;;5074225;28;20409;-78
2023/08/21 01:14:57;;;;;;;9.55;2.78;;;;;;;;;;5062680;28;20045;-77
2023/08/21 01:17:24;;;;;;;7.70;2.63;;;;;;;;;;5041735;28;20088;-77
2023/08/21 01:19:50;;;;;;;8.60;2.35;;;;;;;;;;5055909;28;20056;-77
2023/08/21 01:22:17;;;;;;;9.00;2.50;;;;;;;;;;5061531;28;20052;-78
2023/08/21 01:24:43;;;;;;;10.90;3.13;;;;;;;;;;5054399;28;20083;-78
2023/08/21 01:27:13;;;;;;;9.43;2.85;;;;;;;;;;5056116;28;20069;-78
2023/08/21 01:29:39;;;;;;;9.70;3.53;;;;;;;;;;5056222;28;20041;-78
2023/08/21 01:32:12;;;;;;;11.40;3.25;;;;;;;;;;5074989;28;20041;-77
2023/08/21 01:34:38;;;;;;;7.85;2.95;;;;;;;;;;5075721;28;20053;-78
2023/08/21 01:37:05;;;;;;;9.88;2.85;;;;;;;;;;5075491;28;20041;-77
2023/08/21 01:39:31;;;;;;;10.52;2.90;;;;;;;;;;5056647;28;20041;-78
2023/08/21 01:42:00;;;;;;;12.43;3.20;;;;;;;;;;5074407;28;20051;-79
2023/08/21 01:44:26;;;;;;;11.68;2.92;;;;;;;;;;5076262;28;20447;-77
2023/08/21 01:46:53;;;;;;;10.75;3.20;;;;;;;;;;5075904;28;20051;-78
2023/08/21 01:49:19;;;;;;;10.82;3.00;;;;;;;;;;5075715;28;20565;-78
2023/08/21 01:51:45;;;;;;;14.27;3.47;;;;;;;;;;5067726;28;20082;-78
2023/08/21 01:54:12;;;;;;;10.35;3.22;;;;;;;;;;5078996;28;20096;-78
2023/08/21 01:56:38;;;;;;;8.18;2.92;;;;;;;;;;5078653;28;20488;-78
2023/08/21 01:59:06;;;;;;;9.13;3.00;;;;;;;;;;5078524;28;20050;-78
2023/08/21 02:01:32;;;;;;;7.25;2.60;;;;;;;;;;5063609;28;20056;-78
2023/08/21 02:03:58;;;;;;;10.38;2.70;;;;;;;;;;5066771;28;20486;-80
2023/08/21 02:06:24;;;;;;;8.50;3.10;;;;;;;;;;5078208;28;20040;-78
2023/08/21 02:08:50;;;;;;;8.52;3.15;;;;;;;;;;5045293;28;20114;-77
2023/08/21 02:11:16;;;;;;;9.13;3.10;;;;;;;;;;5071726;28;20048;-80
2023/08/21 02:13:42;;;;;;;6.82;3.05;;;;;;;;;;5058422;28;20109;-78
2023/08/21 02:16:08;;;;;;;10.02;2.70;;;;;;;;;;5058260;28;20368;-78
2023/08/21 02:18:34;;;;;;;6.88;2.25;;;;;;;;;;5077856;28;20044;-78
2023/08/21 02:21:01;;;;;;;7.57;2.33;;;;;;;;;;5078024;28;20056;-78
2023/08/21 02:23:29;;;;;;;6.97;2.40;;;;;;;;;;5077767;28;20100;-79
2023/08/21 02:25:55;;;;;;;5.90;1.90;;;;;;;;;;5043512;28;20141;-77
2023/08/21 02:28:21;;;;;;;6.80;2.13;;;;;;;;;;5050449;28;20045;-78
2023/08/21 02:30:47;;;;;;;6.43;2.60;;;;;;;;;;5069598;28;20044;-78
2023/08/21 02:33:13;;;;;;;5.32;2.65;;;;;;;;;;5070269;28;20824;-79
2023/08/21 02:35:39;;;;;;;5.50;2.30;;;;;;;;;;5076793;28;20052;-78
2023/08/21 02:38:05;;;;;;;8.27;2.50;;;;;;;;;;5057942;28;20099;-78
2023/08/21 02:40:31;;;;;;;6.32;2.60;;;;;;;;;;5057777;28;20045;-78
2023/08/21 02:42:58;;;;;;;6.93;2.33;;;;;;;;;;5068383;28;20044;-78
2023/08/21 02:45:24;;;;;;;5.28;1.90;;;;;;;;;;5078207;28;20120;-78
2023/08/21 02:47:50;;;;;;;5.45;2.15;;;;;;;;;;5077072;28;20121;-78
2023/08/21 02:50:16;;;;;;;4.13;1.60;;;;;;;;;;5059257;28;20478;-75
2023/08/21 02:52:42;;;;;;;4.90;1.60;;;;;;;;;;5077080;28;20449;-77
2023/08/21 02:55:09;;;;;;;7.22;2.33;;;;;;;;;;5077356;28;20048;-77
2023/08/21 02:57:35;;;;;;;8.07;2.65;;;;;;;;;;5077085;28;20036;-78
2023/08/21 03:00:01;;;;;;;5.72;2.13;;;;;;;;;;5076352;28;20044;-78
2023/08/21 03:02:28;;;;;;;6.78;2.00;;;;;;;;;;5071830;28;20151;-77
2023/08/21 03:04:54;;;;;;;6.13;2.10;;;;;;;;;;5056419;28;20060;-77
2023/08/21 03:07:20;;;;;;;6.45;2.50;;;;;;;;;;5049377;28;20055;-77
2023/08/21 03:09:47;;;;;;;7.18;2.20;;;;;;;;;;5056150;28;20502;-76
2023/08/21 03:12:13;;;;;;;3.78;1.70;;;;;;;;;;5049129;28;20041;-77
2023/08/21 03:14:39;;;;;;;6.70;2.10;;;;;;;;;;5056681;28;20059;-77
2023/08/21 03:17:05;;;;;;;4.28;1.60;;;;;;;;;;5066172;28;20037;-77
2023/08/21 03:19:31;;;;;;;5.55;2.08;;;;;;;;;;5075174;28;20092;-77
2023/08/21 03:21:57;;;;;;;5.53;1.85;;;;;;;;;;5075812;28;20049;-77
2023/08/21 03:24:23;;;;;;;5.72;1.60;;;;;;;;;;5076260;28;20063;-78
2023/08/21 03:26:50;;;;;;;7.03;1.88;;;;;;;;;;5072839;28;20123;-78
2023/08/21 03:29:16;;;;;;;4.57;1.83;;;;;;;;;;5069091;28;20051;-78
2023/08/21 03:31:42;;;;;;;5.30;1.60;;;;;;;;;;5075362;28;20474;-78
2023/08/21 03:34:08;;;;;;;8.38;2.25;;;;;;;;;;5047997;28;20073;-78
2023/08/21 03:36:36;;;;;;;9.23;2.10;;;;;;;;;;5055494;28;20045;-78
2023/08/21 03:39:04;;;;;;;5.53;1.92;;;;;;;;;;5056324;28;20068;-78
2023/08/21 03:41:30;;;;;;;6.45;2.13;;;;;;;;;;5055809;28;20095;-78
2023/08/21 03:43:56;;;;;;;6.30;2.10;;;;;;;;;;5053912;28;20459;-78
2023/08/21 03:46:22;;;;;;;4.65;1.90;;;;;;;;;;5061784;28;20687;-78
2023/08/21 03:48:50;;;;;;;8.25;1.88;;;;;;;;;;5075336;28;20044;-78
2023/08/21 03:51:16;;;;;;;5.32;1.90;;;;;;;;;;5058056;28;20065;-78
2023/08/21 03:53:42;;;;;;;5.60;1.95;;;;;;;;;;5073787;28;20243;-78
2023/08/21 03:56:08;;;;;;;5.65;1.80;;;;;;;;;;5051044;28;20045;-78
2023/08/21 03:58:34;;;;;;;7.03;2.28;;;;;;;;;;5051138;28;20415;-78
2023/08/21 04:01:00;;;;;;;6.32;1.83;;;;;;;;;;5059311;28;20500;-78
2023/08/21 04:03:26;;;;;;;6.15;1.88;;;;;;;;;;5075048;28;20479;-78
2023/08/21 04:05:56;;;;;;;5.10;1.63;;;;;;;;;;5070214;28;20062;-78
2023/08/21 04:08:22;;;;;;;5.72;1.75;;;;;;;;;;5068706;28;20052;-78
2023/08/21 04:10:49;;;;;;;4.78;1.77;;;;;;;;;;5074763;28;20047;-78
2023/08/21 04:13:15;;;;;;;5.93;2.20;;;;;;;;;;5074032;28;20093;-77
2023/08/21 04:15:45;;;;;;;6.32;1.90;;;;;;;;;;5064120;28;20045;-78
2023/08/21 04:18:11;;;;;;;4.78;1.52;;;;;;;;;;5046020;28;20080;-77
2023/08/21 04:20:38;;;;;;;6.72;1.58;;;;;;;;;;5046313;28;20067;-77
2023/08/21 04:23:04;;;;;;;6.22;1.40;;;;;;;;;;5071802;28;20520;-77
2023/08/21 04:25:30;;;;;;;5.25;1.88;;;;;;;;;;5071358;28;20123;-79
2023/08/21 04:27:56;;;;;;;8.65;1.90;;;;;;;;;;5078499;28;20056;-78
2023/08/21 04:30:22;;;;;;;6.38;1.95;;;;;;;;;;5055392;28;20095;-78
2023/08/21 04:32:48;;;;;;;7.68;1.77;;;;;;;;;;5053042;28;20045;-76
2023/08/21 04:35:15;;;;;;;7.53;1.75;;;;;;;;;;5053772;28;20474;-76
2023/08/21 04:37:44;;;;;;;5.68;1.75;;;;;;;;;;5061774;28;20083;-78
2023/08/21 04:40:11;;;;;;;5.75;1.42;;;;;;;;;;5073363;28;20040;-78
2023/08/21 04:42:37;;;;;;;4.60;1.52;;;;;;;;;;5063774;28;20060;-78
2023/08/21 04:45:04;;;;;;;2.88;1.30;;;;;;;;;;5072148;28;20052;-78
2023/08/21 04:47:30;;;;;;;3.40;1.30;;;;;;;;;;5073675;28;20394;-78
2023/08/21 04:49:56;;;;;;;3.03;1.20;;;;;;;;;;5073861;28;20056;-78
2023/08/21 04:52:23;;;;;;;5.00;1.58;;;;;;;;;;5072853;28;20119;-78
2023/08/21 04:54:49;;;;;;;4.85;1.60;;;;;;;;;;5073418;28;20101;-78
2023/08/21 04:57:17;;;;;;;5.30;1.83;;;;;;;;;;5055601;28;20044;-78
2023/08/21 04:59:43;;;;;;;6.20;1.70;;;;;;;;;;5070572;28;20123;-78
2023/08/21 05:02:09;;;;;;;6.43;1.95;;;;;;;;;;5068384;28;20049;-78
2023/08/21 05:04:36;;;;;;;5.45;1.90;;;;;;;;;;5070453;28;20037;-78
2023/08/21 05:07:02;;;;;;;7.25;1.73;;;;;;;;;;5064571;28;20045;-78
2023/08/21 05:09:28;;;;;;;5.65;1.85;;;;;;;;;;5056659;28;20033;-78
2023/08/21 05:11:55;;;;;;;7.18;1.73;;;;;;;;;;5073117;28;20049;-78
2023/08/21 05:14:21;;;;;;;5.82;1.70;;;;;;;;;;5073646;28;20083;-78
2023/08/21 05:16:49;;;;;;;5.00;1.83;;;;;;;;;;5046396;28;20041;-78
2023/08/21 05:19:16;;;;;;;5.35;1.48;;;;;;;;;;5067571;28;20041;-78
2023/08/21 05:21:42;;;;;;;3.97;1.20;;;;;;;;;;5073008;28;20047;-78
2023/08/21 05:24:08;;;;;;;4.10;1.08;;;;;;;;;;5065347;28;20051;-78
2023/08/21 05:26:36;;;;;;;2.92;1.00;;;;;;;;;;5073599;28;20041;-78
2023/08/21 05:29:02;;;;;;;2.83;0.80;;;;;;;;;;5076717;28;20127;-78
2023/08/21 05:31:28;;;;;;;7.75;1.60;;;;;;;;;;5062885;28;20052;-77
2023/08/21 05:33:54;;;;;;;7.28;1.60;;;;;;;;;;5067271;28;20060;-78
2023/08/21 05:36:20;;;;;;;4.00;1.20;;;;;;;;;;5076619;28;20399;-77
2023/08/21 05:38:47;;;;;;;5.00;1.48;;;;;;;;;;5052567;28;20172;-76
2023/08/21 05:41:14;;;;;;;5.90;1.38;;;;;;;;;;5074582;28;20048;-77
2023/08/21 05:43:42;;;;;;;6.05;1.40;;;;;;;;;;5077396;28;20059;-77
2023/08/21 05:46:08;;;;;;;8.77;1.58;;;;;;;;;;5066214;28;20049;-78
2023/08/21 05:48:34;;;;;;;8.70;1.67;;;;;;;;;;5073593;28;20230;-77
2023/08/21 05:51:00;;;;;;;5.75;1.70;;;;;;;;;;5076189;28;20532;-79
2023/08/21 05:53:26;;;;;;;4.18;1.20;;;;;;;;;;5073227;28;20056;-78
2023/08/21 05:55:52;;;;;;;6.28;1.30;;;;;;;;;;5060268;28;20040;-78
2023/08/21 05:58:19;;;;;;;5.63;1.33;;;;;;;;;;5072810;28;20033;-78
2023/08/21 06:00:45;;;;;;;4.35;1.40;;;;;;;;;;5067388;28;20419;-78
2023/08/21 06:03:11;;;;;;;5.93;2.20;;;;;;;;;;5068660;28;20048;-77
2023/08/21 06:05:37;;;;;;;6.22;2.03;;;;;;;;;;5059287;28;20674;-77
2023/08/21 06:08:03;;;;;;;6.50;1.95;;;;;;;;;;5072284;28;20075;-78
2023/08/21 06:10:31;;;;;;;8.32;2.30;;;;;;;;;;5068581;28;20045;-78
2023/08/21 06:12:57;;;;;;;10.90;1.90;;;;;;;;;;5071497;28;20300;-78
2023/08/21 06:15:23;;;;;;;6.78;2.28;;;;;;;;;;5057723;28;20045;-78
2023/08/21 06:17:49;;;;;;;6.85;2.17;;;;;;;;;;5057336;28;20053;-79
2023/08/21 06:20:15;;;;;;;6.85;1.83;;;;;;;;;;5058692;28;20060;-77
2023/08/21 06:22:41;;;;;;;6.95;2.05;;;;;;;;;;5034859;28;20057;-77
2023/08/21 06:25:09;;;;;;;7.03;2.10;;;;;;;;;;5071172;28;20067;-77
2023/08/21 06:27:35;;;;;;;8.23;2.10;;;;;;;;;;5065717;28;20123;-78
2023/08/21 06:30:01;;;;;;;8.13;2.30;;;;;;;;;;5075621;28;20463;-77
2023/08/21 06:32:27;;;;;;;7.43;2.35;;;;;;;;;;5054766;28;20112;-78
2023/08/21 06:34:53;;;;;;;6.68;2.20;;;;;;;;;;5059611;28;20070;-76
2023/08/21 06:37:19;;;;;;;7.00;2.08;;;;;;;;;;5059044;28;20040;-76
2023/08/21 06:39:45;;;;;;;7.70;2.00;;;;;;;;;;5066986;28;20040;-76
2023/08/21 06:42:11;;;;;;;9.43;2.60;;;;;;;;;;5068568;28;20174;-77
2023/08/21 06:44:37;;;;;;;7.50;2.20;;;;;;;;;;5074529;28;20090;-76
2023/08/21 06:47:03;;;;;;;6.68;2.03;;;;;;;;;;5074341;28;20044;-77
2023/08/21 06:49:29;;;;;;;8.48;2.42;;;;;;;;;;5074357;28;20124;-77
2023/08/21 06:51:55;;;;;;;9.30;2.40;;;;;;;;;;5072679;28;20383;-77
2023/08/21 06:54:21;;;;;;;7.45;2.22;;;;;;;;;;5071533;28;20124;-76
2023/08/21 06:56:47;;;;;;;8.23;2.15;;;;;;;;;;5074321;28;20510;-76
2023/08/21 06:59:15;;;;;;;11.93;2.40;;;;;;;;;;5067686;28;20044;-76
2023/08/21 07:01:41;;;;;;;8.15;1.92;;;;;;;;;;5066930;28;20053;-76
2023/08/21 07:04:07;;;;;;;8.02;2.50;;;;;;;;;;5056207;28;20077;-76
2023/08/21 07:06:33;;;;;;;9.48;2.20;;;;;;;;;;5060649;28;20090;-76
2023/08/21 07:08:59;;;;;;;11.52;2.60;;;;;;;;;;5065312;28;20049;-76
2023/08/21 07:11:25;;;;;;;7.28;2.20;;;;;;;;;;5061051;28;20097;-76
2023/08/21 07:13:51;;;;;;;8.27;2.10;;;;;;;;;;5072687;28;20120;-77
2023/08/21 07:16:17;;;;;;;7.47;2.40;;;;;;;;;;5062739;28;20379;-76
2023/08/21 07:18:43;;;;;;;8.23;2.60;;;;;;;;;;5059290;28;20045;-77
2023/08/21 07:21:10;;;;;;;9.18;2.30;;;;;;;;;;5065564;28;20410;-77
2023/08/21 07:23:35;;;;;;;6.85;2.13;;;;;;;;;;5071221;28;20049;-78
2023/08/21 07:26:03;;;;;;;6.60;1.95;;;;;;;;;;5050920;28;20044;-77
2023/08/21 07:28:29;;;;;;;8.70;2.10;;;;;;;;;;5064761;28;20074;-77
2023/08/21 07:30:58;;;;;;;8.07;1.80;;;;;;;;;;5071680;28;20076;-78
2023/08/21 07:33:25;;;;;;;6.93;1.92;;;;;;;;;;5071721;28;20051;-77
2023/08/21 07:36:04;;;;;;;5.72;1.30;;;;;;;;;;5070973;28;20041;-77
2023/08/21 07:38:31;;;;;;;8.63;1.67;;;;;;;;;;5070531;28;20048;-77
2023/08/21 07:41:07;;;;;;;6.88;1.60;;;;;;;;;;5069237;28;20477;-77
2023/08/21 07:43:34;;;;;;;6.50;1.23;;;;;;;;;;5072927;28;20138;-77
2023/08/21 07:46:04;;;;;;;6.03;1.23;;;;;;;;;;5071901;28;20048;-78
2023/08/21 07:48:30;;;;;;;7.20;1.55;;;;;;;;;;5072478;28;20105;-78
2023/08/21 07:50:56;;;;;;;5.45;1.17;;;;;;;;;;5072185;28;20052;-77
2023/08/21 07:53:23;;;;;;;6.53;1.30;;;;;;;;;;5065612;28;20131;-78
2023/08/21 07:55:49;;;;;;;5.65;1.20;;;;;;;;;;5071373;28;20422;-77
2023/08/21 07:58:15;;;;;;;7.25;1.38;;;;;;;;;;5066135;28;20052;-77
2023/08/21 08:00:42;;;;;;;5.05;1.15;;;;;;;;;;5067911;28;20078;-78
2023/08/21 08:03:09;;;;;;;5.43;1.27;;;;;;;;;;5060438;28;20049;-78
2023/08/21 08:05:35;;;;;;;6.20;1.45;;;;;;;;;;5068107;28;20044;-78
2023/08/21 08:08:01;;;;;;;6.10;1.40;;;;;;;;;;5068728;28;20045;-78
2023/08/21 08:10:27;;;;;;;7.10;1.30;;;;;;;;;;5072238;28;20513;-77
2023/08/21 08:12:54;;;;;;;5.57;1.20;;;;;;;;;;5068507;28;20040;-78
2023/08/21 08:15:20;;;;;;;5.78;1.10;;;;;;;;;;5077196;28;20049;-77
2023/08/21 08:17:46;;;;;;;5.28;1.20;;;;;;;;;;5076537;28;20048;-78
2023/08/21 08:20:13;;;;;;;7.50;1.27;;;;;;;;;;5056309;28;20071;-78
2023/08/21 08:22:39;;;;;;;5.85;1.70;;;;;;;;;;5067393;28;20048;-78
2023/08/21 08:25:06;;;;;;;7.03;1.52;;;;;;;;;;5059347;28;20079;-78
2023/08/21 08:27:32;;;;;;;5.30;1.08;;;;;;;;;;5069295;28;20123;-77
2023/08/21 08:29:59;;;;;;;7.30;1.30;;;;;;;;;;5061089;28;20037;-78
2023/08/21 08:32:25;;;;;;;6.72;1.52;;;;;;;;;;5056598;28;20037;-79
2023/08/21 08:34:52;;;;;;;6.78;1.38;;;;;;;;;;5077784;28;20052;-79
2023/08/21 08:37:18;;;;;;;6.50;1.50;;;;;;;;;;5078366;28;20136;-79
2023/08/21 08:39:46;;;;;;;5.75;1.02;;;;;;;;;;5069700;28;20045;-80
2023/08/21 08:42:14;;;;;;;5.80;1.20;;;;;;;;;;5073603;28;20045;-80
2023/08/21 08:44:41;;;;;;;6.75;1.33;;;;;;;;;;5072844;28;20045;-79
2023/08/21 08:47:07;;;;;;;4.85;1.10;;;;;;;;;;5058461;28;20057;-79
2023/08/21 08:49:33;;;;;;;5.47;1.17;;;;;;;;;;5083017;28;20083;-79
2023/08/21 08:52:00;;;;;;;4.15;0.88;;;;;;;;;;5075589;28;20052;-79
2023/08/21 08:54:27;;;;;;;4.53;0.82;;;;;;;;;;5047634;28;20522;-79
2023/08/21 08:56:54;;;;;;;5.57;1.10;;;;;;;;;;5082711;28;20232;-79
2023/08/21 08:59:20;;;;;;;5.88;1.13;;;;;;;;;;5082496;28;20498;-79
2023/08/21 09:01:46;;;;;;;4.50;0.80;;;;;;;;;;5082381;28;20053;-79
2023/08/21 09:04:13;;;;;;;5.97;1.13;;;;;;;;;;5082209;28;20041;-79
2023/08/21 09:06:39;;;;;;;5.35;1.30;;;;;;;;;;5065515;28;20066;-79
2023/08/21 09:09:05;;;;;;;4.50;1.02;;;;;;;;;;5085821;28;20040;-79
2023/08/21 09:11:33;;;;;;;4.55;1.05;;;;;;;;;;5085444;28;20044;-79
2023/08/21 09:13:59;;;;;;;5.40;1.05;;;;;;;;;;5085421;28;20044;-79
2023/08/21 09:16:26;;;;;;;5.53;0.98;;;;;;;;;;5085120;28;20047;-79
2023/08/21 09:18:53;;;;;;;5.40;1.10;;;;;;;;;;5079500;28;20033;-78
2023/08/21 09:21:20;;;;;;;5.07;1.20;;;;;;;;;;5084956;28;20064;-79
2023/08/21 09:23:47;;;;;;;5.07;1.00;;;;;;;;;;5074032;28;20040;-79
2023/08/21 09:26:22;;;;;;;5.50;1.10;;;;;;;;;;5097768;28;20044;-79
2023/08/21 09:28:48;;;;;;;8.60;1.42;;;;;;;;;;5082432;28;20449;-78
2023/08/21 09:31:14;;;;;;;5.82;1.17;;;;;;;;;;5079910;28;20048;-79
2023/08/21 09:33:40;;;;;;;4.32;1.05;;;;;;;;;;5099396;28;20044;-80
2023/08/21 09:36:06;;;;;;;5.82;1.10;;;;;;;;;;5068067;28;20415;-78
2023/08/21 09:38:35;;;;;;;4.05;0.88;;;;;;;;;;5077199;28;20040;-78
2023/08/21 09:41:01;;;;;;;3.85;0.90;;;;;;;;;;5070549;28;20094;-78
2023/08/21 09:43:27;;;;;;;5.10;1.10;;;;;;;;;;5077145;28;20136;-79
2023/08/21 09:45:57;;;;;;;7.03;1.02;;;;;;;;;;5071209;28;20082;-78
2023/08/21 09:48:26;;;;;;;5.07;1.15;;;;;;;;;;5077971;28;20048;-78
2023/08/21 09:50:52;;;;;;;7.43;1.33;;;;;;;;;;5061508;28;20495;-79
2023/08/21 09:53:19;;;;;;;5.65;1.05;;;;;;;;;;5077421;28;20197;-78
2023/08/21 09:55:46;;;;;;;5.03;1.05;;;;;;;;;;5082932;28;20046;-79
2023/08/21 09:58:14;;;;;;;9.25;1.13;;;;;;;;;;5065890;28;20119;-79
2023/08/21 10:00:41;;;;;;;6.15;1.00;;;;;;;;;;5062048;28;20041;-78
2023/08/21 10:03:08;;;;;;;3.97;1.02;;;;;;;;;;5063316;28;20454;-79
2023/08/21 10:05:35;;;;;;;4.35;1.05;;;;;;;;;;5062841;28;20046;-79
2023/08/21 10:08:02;;;;;;;4.53;1.02;;;;;;;;;;5075654;28;20390;-79
2023/08/21 10:10:36;;;;;;;5.15;1.00;;;;;;;;;;5044640;28;20543;-78
2023/08/21 10:13:02;;;;;;;4.43;0.98;;;;;;;;;;5080502;28;20193;-80
2023/08/21 10:15:29;;;;;;;4.43;0.90;;;;;;;;;;5084035;28;20036;-79
2023/08/21 10:17:55;;;;;;;4.85;1.02;;;;;;;;;;5078509;28;20115;-79
2023/08/21 10:20:25;;;;;;;6.13;2.15;;;;;;;;;;5068423;28;20530;-80
2023/08/21 10:22:55;;;;;;;5.30;0.90;;;;;;;;;;5078924;28;20560;-79
2023/08/21 10:25:22;;;;;;;4.20;0.85;;;;;;;;;;5085553;28;20083;-79
2023/08/21 10:27:54;;;;;;;5.63;0.95;;;;;;;;;;5072638;28;20045;-79
2023/08/21 10:30:24;;;;;;;4.43;1.02;;;;;;;;;;5083577;28;20048;-79
2023/08/21 10:32:52;;;;;;;6.53;1.38;;;;;;;;;;5084170;28;20040;-78
2023/08/21 10:35:22;;;;;;;6.40;1.27;;;;;;;;;;5084969;28;20049;-80
2023/08/21 10:38:12;;;;;;;5.13;1.10;;;;;;;;;;5082291;28;20041;-79
2023/08/21 10:40:38;;;;;;;4.53;0.98;;;;;;;;;;5072397;28;20096;-79
2023/08/21 10:43:04;;;;;;;5.78;1.35;;;;;;;;;;5064719;28;20384;-79
2023/08/21 10:45:31;;;;;;;5.13;1.05;;;;;;;;;;5084219;28;20101;-77
2023/08/21 10:48:01;;;;;;;6.60;1.30;;;;;;;;;;5084466;28;20056;-79
2023/08/21 10:50:27;;;;;;;5.47;1.30;;;;;;;;;;5083977;28;20044;-79
2023/08/21 10:52:53;;;;;;;4.78;1.00;;;;;;;;;;5065167;28;20043;-80
2023/08/21 10:55:20;;;;;;;5.38;1.00;;;;;;;;;;5081716;28;20486;-79
2023/08/21 10:57:47;;;;;;;6.10;0.93;;;;;;;;;;5084413;28;20048;-79
2023/08/21 11:00:17;;;;;;;5.65;1.10;;;;;;;;;;5067906;28;20036;-77
2023/08/21 11:02:47;;;;;;;4.32;0.88;;;;;;;;;;5066466;28;20037;-78
2023/08/21 11:05:14;;;;;;;5.75;0.93;;;;;;;;;;5074578;28;20040;-77
2023/08/21 11:07:40;;;;;;;6.20;0.98;;;;;;;;;;5072545;28;20044;-78
2023/08/21 11:10:08;;;;;;;5.22;0.90;;;;;;;;;;5078457;28;20041;-78
2023/08/21 11:12:34;;;;;;;3.00;0.80;;;;;;;;;;5078080;28;20123;-79
2023/08/21 11:15:00;;;;;;;6.63;0.90;;;;;;;;;;5080035;28;20685;-79
2023/08/21 11:17:26;;;;;;;5.47;0.90;;;;;;;;;;5080564;28;20068;-79
2023/08/21 11:19:52;;;;;;;4.63;1.10;;;;;;;;;;5081140;28;20396;-79
2023/08/21 11:22:18;;;;;;;5.57;0.80;;;;;;;;;;5078019;28;20059;-79
2023/08/21 11:24:46;;;;;;;4.47;0.90;;;;;;;;;;5080260;28;20104;-78
2023/08/21 11:27:14;;;;;;;4.78;1.10;;;;;;;;;;5083059;28;20048;-79
2023/08/21 11:29:43;;;;;;;4.55;1.00;;;;;;;;;;5068125;28;20044;-79
2023/08/21 11:32:19;;;;;;;4.03;0.90;;;;;;;;;;5083081;28;20052;-80
2023/08/21 11:34:48;;;;;;;3.40;0.90;;;;;;;;;;5081767;28;20074;-79
2023/08/21 11:37:14;;;;;;;6.88;1.13;;;;;;;;;;5079971;28;20119;-78
2023/08/21 11:39:44;;;;;;;5.70;0.77;;;;;;;;;;5076866;28;20053;-79
2023/08/21 11:42:14;;;;;;;5.78;1.00;;;;;;;;;;5077946;28;20039;-79
2023/08/21 11:44:41;;;;;;;4.63;1.10;;;;;;;;;;5077947;28;20064;-79
2023/08/21 11:47:07;;;;;;;5.63;1.10;;;;;;;;;;5072863;28;20037;-78
2023/08/21 11:49:33;;;;;;;3.35;0.80;;;;;;;;;;5076651;28;20040;-80
2023/08/21 11:51:59;;;;;;;4.95;0.95;;;;;;;;;;5073618;28;20049;-79
2023/08/21 11:54:25;;;;;;;5.35;1.30;;;;;;;;;;5071307;28;20051;-78
2023/08/21 11:56:51;;;;;;;4.43;0.80;;;;;;;;;;5077842;28;20114;-79
2023/08/21 11:59:24;;;;;;;5.15;1.00;;;;;;;;;;5061067;28;20052;-79
2023/08/21 12:01:53;;;;;;;4.80;0.80;;;;;;;;;;5076983;28;20502;-78
2023/08/21 12:04:19;;;;;;;5.07;1.30;;;;;;;;;;5078226;28;20040;-79
2023/08/21 12:06:46;;;;;;;6.65;1.15;;;;;;;;;;5077507;28;20108;-79
2023/08/21 12:09:12;;;;;;;5.68;1.08;;;;;;;;;;5077940;28;20050;-78
2023/08/21 12:11:38;;;;;;;4.80;1.00;;;;;;;;;;5074876;28;20048;-79
2023/08/21 12:14:04;;;;;;;5.00;1.00;;;;;;;;;;5077377;28;20036;-79
2023/08/21 12:16:30;;;;;;;4.47;0.93;;;;;;;;;;5077227;28;20040;-79
2023/08/21 12:18:57;;;;;;;5.43;1.20;;;;;;;;;;5076914;28;20074;-78
2023/08/21 12:21:23;;;;;;;5.78;1.02;;;;;;;;;;5076911;28;20153;-78
2023/08/21 12:23:49;;;;;;;5.75;1.40;;;;;;;;;;5076009;28;20084;-79
2023/08/21 12:26:22;;;;;;;5.68;1.00;;;;;;;;;;5076519;28;20048;-78
2023/08/21 12:28:49;;;;;;;5.13;0.98;;;;;;;;;;5058939;28;20127;-79
2023/08/21 12:31:15;;;;;;;5.03;1.27;;;;;;;;;;5077218;28;20363;-78
2023/08/21 12:33:41;;;;;;;5.45;1.10;;;;;;;;;;5078162;28;20045;-78
2023/08/21 12:36:10;;;;;;;5.65;1.15;;;;;;;;;;5076574;28;20056;-79
2023/08/21 12:38:36;;;;;;;6.63;1.20;;;;;;;;;;5076864;28;20447;-78
2023/08/21 12:41:03;;;;;;;4.55;1.20;;;;;;;;;;5077073;28;20074;-78
2023/08/21 12:43:29;;;;;;;4.53;1.00;;;;;;;;;;5077512;28;20401;-79
2023/08/21 12:45:55;;;;;;;4.68;1.10;;;;;;;;;;5060574;28;20331;-78
2023/08/21 12:48:21;;;;;;;5.43;1.27;;;;;;;;;;5077263;28;20044;-79
2023/08/21 12:50:48;;;;;;;4.25;0.88;;;;;;;;;;5075725;28;20048;-79
2023/08/21 12:53:14;;;;;;;4.60;1.08;;;;;;;;;;5072093;28;20048;-76
2023/08/21 12:55:40;;;;;;;5.32;1.10;;;;;;;;;;5066971;28;20053;-76
2023/08/21 12:58:06;;;;;;;5.03;1.02;;;;;;;;;;5061760;28;22100;-76
2023/08/21 13:00:32;;;;;;;5.65;1.20;;;;;;;;;;5063908;28;20486;-76
2023/08/21 13:02:58;;;;;;;5.05;1.17;;;;;;;;;;5058983;28;20078;-76
2023/08/21 13:05:24;;;;;;;6.32;1.50;;;;;;;;;;5060115;28;20048;-76
2023/08/21 13:07:50;;;;;;;4.88;0.98;;;;;;;;;;5034148;28;20445;-76
2023/08/21 13:10:16;;;;;;;6.13;1.30;;;;;;;;;;5061454;28;20037;-76
2023/08/21 13:12:43;;;;;;;5.07;1.13;;;;;;;;;;5066163;28;20048;-76
2023/08/21 13:15:09;;;;;;;6.75;1.73;;;;;;;;;;5063051;28;20429;-76
2023/08/21 13:17:36;;;;;;;5.80;1.20;;;;;;;;;;5071665;28;20045;-75
2023/08/21 13:20:03;;;;;;;3.50;1.10;;;;;;;;;;5067613;28;20057;-76
2023/08/21 13:22:29;;;;;;;5.93;1.00;;;;;;;;;;5060442;28;20049;-77
2023/08/21 13:24:55;;;;;;;6.05;1.00;;;;;;;;;;5050597;28;20162;-77
2023/08/21 13:27:21;;;;;;;5.43;1.15;;;;;;;;;;5052273;28;20072;-77
2023/08/21 13:29:47;;;;;;;5.47;1.08;;;;;;;;;;5064109;28;20119;-77
2023/08/21 13:32:13;;;;;;;4.05;0.98;;;;;;;;;;5065408;28;20037;-77
2023/08/21 13:34:39;;;;;;;4.22;1.00;;;;;;;;;;5071063;28;20051;-76
2023/08/21 13:37:05;;;;;;;4.97;1.23;;;;;;;;;;5059960;28;20041;-77
2023/08/21 13:39:31;;;;;;;4.18;1.10;;;;;;;;;;5061904;28;20045;-77
2023/08/21 13:41:57;;;;;;;5.68;1.30;;;;;;;;;;5068408;28;20070;-77
2023/08/21 13:44:23;;;;;;;6.18;1.13;;;;;;;;;;5055063;28;20687;-77
2023/08/21 13:46:49;;;;;;;4.57;1.10;;;;;;;;;;5052833;28;20040;-77
2023/08/21 13:49:15;;;;;;;5.55;1.17;;;;;;;;;;5074536;28;20123;-77
2023/08/21 13:51:41;;;;;;;3.88;1.00;;;;;;;;;;5074516;28;20045;-77
2023/08/21 13:54:07;;;;;;;5.13;1.20;;;;;;;;;;5057070;28;20090;-77
2023/08/21 13:56:33;;;;;;;7.00;1.25;;;;;;;;;;5062544;28;20040;-77
2023/08/21 13:58:59;;;;;;;5.85;1.23;;;;;;;;;;5075372;28;20047;-77
2023/08/21 14:01:25;;;;;;;4.45;1.05;;;;;;;;;;5075167;28;20048;-77
2023/08/21 14:03:52;;;;;;;3.38;0.95;;;;;;;;;;5055655;28;20510;-77
2023/08/21 14:06:18;;;;;;;4.40;1.08;;;;;;;;;;5057462;28;20041;-77
2023/08/21 14:08:44;;;;;;;4.65;1.10;;;;;;;;;;5069698;28;20055;-77
2023/08/21 14:11:10;;;;;;;5.28;1.00;;;;;;;;;;5077198;28;20051;-79
2023/08/21 14:13:36;;;;;;;5.25;1.00;;;;;;;;;;5075534;28;20051;-77
2023/08/21 14:16:02;;;;;;;5.28;1.10;;;;;;;;;;5069160;28;20041;-77
2023/08/21 14:18:28;;;;;;;5.72;1.10;;;;;;;;;;5057638;28;20101;-77
2023/08/21 14:20:54;;;;;;;3.97;1.30;;;;;;;;;;5067314;28;20053;-77
2023/08/21 14:23:20;;;;;;;4.50;1.02;;;;;;;;;;5064318;28;20061;-77
2023/08/21 14:25:46;;;;;;;4.95;1.02;;;;;;;;;;5052398;28;20045;-76
2023/08/21 14:28:13;;;;;;;4.32;1.20;;;;;;;;;;5045011;28;20071;-75
2023/08/21 14:30:39;;;;;;;5.45;1.20;;;;;;;;;;5056089;28;20040;-76
2023/08/21 14:33:05;;;;;;;4.90;1.00;;;;;;;;;;5058532;28;20071;-77
2023/08/21 14:35:31;;;;;;;5.00;1.30;;;;;;;;;;5055051;28;20120;-77
2023/08/21 14:37:57;;;;;;;4.88;1.15;;;;;;;;;;5066557;28;20124;-77
2023/08/21 14:40:23;;;;;;;5.15;1.10;;;;;;;;;;5063548;28;20044;-76